Terminal Aerodrome Forecast
Issued by NWS Cleveland, OH

Home | Current Version | Previous Version | Text Only | Print | Product List | Glossary Off
Versions: 1 2 3 4 5 6 7 8 9 10 11 12 13 14 15 16

166
FTUS41 KCLE 141728
TAFMFD
TAF
KMFD 141728Z 1418/1518 17006KT P6SM FEW035 SCT250
     FM150100 13005KT P6SM BKN200
     FM151400 16008KT 5SM -SN OVC025
     FM151700 18010KT 1 1/2SM -SN OVC010=

USA.gov is the U.S. government's official web portal to all federal, state and local government web resources and services.